Suffield, Canada
Current Conditions -  °F | °C
As of 4:00 PM on Wednesday 22 Oct 2014 (Local Time) from CYXH Reporting Station
Broken Clouds Broken Clouds  
Wind Chill: 63°   Ceiling: 28000
Heat Index: 63°   Visibility: 30mi
Dew Point: 34°   Wind: 16mph
Humidity: 34%   Direction: 200°SSW
Pressure: 29.75"   Gusts: 22mph
Location:  50.21°N, 111.18°W
Report Text: CYXH 222200Z 20014G19KT 30SM FEW064 BKN280 17/01 A2975 RMK CU1CI6 CU TR SLP081 DENSITY ALT 3300FT
Loading
Personal Weather Stations






























Interactive Weather Map
Tropical Storm Tracking
New forecast layout! Learn more

10-Day Weather Forecast

Advertisements
Track Severe Weather on mobile